createdAt,value
2022-09-25T00:01:35.295Z,13.05
2022-09-25T00:04:03.794Z,13.04
2022-09-25T00:06:34.101Z,13.07
2022-09-25T00:09:03.138Z,13.02
2022-09-25T00:11:33.015Z,13.00
2022-09-25T00:14:03.483Z,13.00
2022-09-25T00:16:33.583Z,12.92
2022-09-25T00:19:19.877Z,12.90
2022-09-25T00:21:53.232Z,12.85
2022-09-25T00:24:22.573Z,12.91
2022-09-25T00:26:51.225Z,12.89
2022-09-25T00:29:21.981Z,12.89
2022-09-25T00:31:50.164Z,12.91
2022-09-25T00:34:18.379Z,12.90
2022-09-25T00:36:46.640Z,12.89
2022-09-25T00:39:15.030Z,12.87
2022-09-25T00:41:45.062Z,12.85
2022-09-25T00:45:05.210Z,12.83
2022-09-25T00:47:44.646Z,12.71
2022-09-25T00:50:22.128Z,12.77
2022-09-25T00:52:53.310Z,12.79
2022-09-25T00:55:22.689Z,12.82
2022-09-25T00:57:54.473Z,12.76
2022-09-25T01:00:22.849Z,12.74
2022-09-25T01:02:55.151Z,12.78
2022-09-25T01:05:27.310Z,12.81
2022-09-25T01:07:58.522Z,12.81
2022-09-25T01:10:26.711Z,12.83
2022-09-25T01:12:56.376Z,12.78
2022-09-25T01:15:31.988Z,12.73
2022-09-25T01:18:11.561Z,12.76
2022-09-25T01:21:10.090Z,12.66
2022-09-25T01:24:01.559Z,12.59
2022-09-25T01:27:00.229Z,12.57
2022-09-25T01:29:36.032Z,12.56
2022-09-25T01:32:11.720Z,12.59
2022-09-25T01:34:45.777Z,12.62
2022-09-25T01:37:23.550Z,12.64
2022-09-25T01:40:03.848Z,12.61
2022-09-25T01:42:38.583Z,12.62
2022-09-25T01:45:12.261Z,12.62
2022-09-25T01:47:42.300Z,12.61
2022-09-25T01:50:17.956Z,12.65
2022-09-25T01:52:52.299Z,12.68
2022-09-25T01:55:28.665Z,12.60
2022-09-25T01:58:04.416Z,12.62
2022-09-25T02:00:40.061Z,12.61
2022-09-25T02:03:12.664Z,12.66
2022-09-25T02:05:46.832Z,12.69
2022-09-25T02:08:22.223Z,12.71
2022-09-25T02:10:56.292Z,12.78
2022-09-25T02:13:27.948Z,12.82
2022-09-25T02:16:01.899Z,12.87
2022-09-25T02:18:48.547Z,12.81
2022-09-25T02:21:26.637Z,12.72
2022-09-25T02:24:02.361Z,12.63
2022-09-25T02:26:32.611Z,12.58
2022-09-25T02:29:02.498Z,12.56
2022-09-25T02:31:39.324Z,12.51
2022-09-25T02:34:13.768Z,12.52
2022-09-25T02:36:45.068Z,12.56
2022-09-25T02:39:16.142Z,12.54
2022-09-25T02:42:06.223Z,12.55
2022-09-25T02:44:43.699Z,12.64
2022-09-25T02:47:25.519Z,12.68
2022-09-25T02:50:04.487Z,12.64
2022-09-25T02:52:38.566Z,12.65
2022-09-25T02:55:12.386Z,12.63
2022-09-25T02:57:46.473Z,12.59
2022-09-25T03:00:15.645Z,12.61
2022-09-25T03:02:52.111Z,12.59
2022-09-25T03:05:22.591Z,12.59
2022-09-25T03:08:08.867Z,12.60
2022-09-25T03:10:39.439Z,12.59
2022-09-25T03:13:19.336Z,12.57
2022-09-25T03:15:53.179Z,12.57
2022-09-25T03:18:23.211Z,12.58
2022-09-25T03:20:51.328Z,12.57
2022-09-25T03:23:19.570Z,12.56
2022-09-25T03:25:50.371Z,12.60
2022-09-25T03:28:19.047Z,12.66
2022-09-25T03:30:57.279Z,12.72
2022-09-25T03:33:27.890Z,12.80
2022-09-25T03:36:18.659Z,12.88
2022-09-25T03:38:49.289Z,12.85
2022-09-25T03:41:21.522Z,12.87
2022-09-25T03:43:52.085Z,12.79
2022-09-25T03:46:23.262Z,12.71
2022-09-25T03:48:53.493Z,12.67
2022-09-25T03:51:22.397Z,12.65
2022-09-25T03:53:51.430Z,12.66
2022-09-25T03:56:21.463Z,12.62
2022-09-25T03:58:49.881Z,12.60
2022-09-25T04:01:19.712Z,12.61
2022-09-25T04:03:48.365Z,12.60
2022-09-25T04:06:22.942Z,12.64
2022-09-25T04:08:51.960Z,12.58
2022-09-25T04:11:21.881Z,12.59
2022-09-25T04:13:50.368Z,12.51
2022-09-25T04:16:21.368Z,12.42
2022-09-25T04:18:50.800Z,12.40
2022-09-25T04:21:20.462Z,12.35
2022-09-25T04:24:08.915Z,12.23
2022-09-25T04:26:37.588Z,12.41
2022-09-25T04:29:06.151Z,12.39
2022-09-25T04:31:35.453Z,12.40
2022-09-25T04:34:04.463Z,12.45
2022-09-25T04:36:33.996Z,12.48
2022-09-25T04:39:02.372Z,12.55
2022-09-25T04:41:30.652Z,12.49
2022-09-25T04:43:58.625Z,12.49
2022-09-25T04:46:27.007Z,12.48
2022-09-25T04:48:55.440Z,12.51
2022-09-25T04:51:23.742Z,12.49
2022-09-25T04:53:53.556Z,12.37
2022-09-25T04:56:22.055Z,12.30
2022-09-25T04:58:51.341Z,12.19
2022-09-25T05:01:21.608Z,12.14
2022-09-25T05:03:50.476Z,12.06
2022-09-25T05:06:18.871Z,12.02
2022-09-25T05:08:49.845Z,12.01
2022-09-25T05:11:19.837Z,11.90
2022-09-25T05:13:51.610Z,11.87
2022-09-25T05:16:20.306Z,11.87
2022-09-25T05:18:48.762Z,11.92
2022-09-25T05:21:17.077Z,11.83
2022-09-25T05:23:45.299Z,11.90
2022-09-25T05:26:13.391Z,11.86
2022-09-25T05:28:43.074Z,11.80
2022-09-25T05:31:11.533Z,11.82
2022-09-25T05:33:39.758Z,11.75
2022-09-25T05:36:09.873Z,11.82
2022-09-25T05:38:40.085Z,11.91
2022-09-25T05:41:10.983Z,11.87
2022-09-25T05:43:43.287Z,11.92
2022-09-25T05:46:12.779Z,11.92
2022-09-25T05:48:41.833Z,11.91
2022-09-25T05:51:11.025Z,11.92
2022-09-25T05:53:40.195Z,11.88
2022-09-25T05:56:09.707Z,11.91
2022-09-25T05:58:38.999Z,11.92
2022-09-25T06:01:08.745Z,11.94
2022-09-25T06:03:37.019Z,11.95
2022-09-25T06:06:05.531Z,12.05
2022-09-25T06:08:34.965Z,12.03
2022-09-25T06:11:03.565Z,12.17
2022-09-25T06:13:33.278Z,12.14
2022-09-25T06:16:02.505Z,12.15
2022-09-25T06:18:32.815Z,12.16
2022-09-25T06:21:02.778Z,12.25
2022-09-25T06:23:32.062Z,12.29
2022-09-25T06:26:04.125Z,12.29
2022-09-25T06:28:33.014Z,12.37
2022-09-25T06:31:02.157Z,12.33
2022-09-25T06:33:32.924Z,12.40
2022-09-25T06:36:01.691Z,12.38
2022-09-25T06:38:30.556Z,12.50
2022-09-25T06:41:00.858Z,12.53
2022-09-25T06:43:30.277Z,12.59
2022-09-25T06:46:02.661Z,12.64
2022-09-25T06:48:33.146Z,12.72
2022-09-25T06:51:02.693Z,12.77
2022-09-25T06:53:31.569Z,12.79
2022-09-25T06:56:03.173Z,12.78
2022-09-25T06:58:31.823Z,12.81
2022-09-25T07:01:00.323Z,12.85
2022-09-25T07:03:46.644Z,12.94
2022-09-25T07:06:18.220Z,12.98
2022-09-25T07:08:48.439Z,13.19
2022-09-25T07:11:19.017Z,13.27
2022-09-25T07:13:47.537Z,13.37
2022-09-25T07:16:17.918Z,13.44
2022-09-25T07:18:46.787Z,13.52
2022-09-25T07:21:18.832Z,13.46
2022-09-25T07:23:50.349Z,13.67
2022-09-25T07:26:22.827Z,13.65
2022-09-25T07:28:56.264Z,13.63
2022-09-25T07:31:26.972Z,13.72
2022-09-25T07:33:55.825Z,13.76
2022-09-25T07:36:25.721Z,13.74
2022-09-25T07:38:54.630Z,13.73
2022-09-25T07:41:23.801Z,13.70
2022-09-25T07:44:02.044Z,13.74
2022-09-25T07:46:43.641Z,13.77
2022-09-25T07:49:11.812Z,13.82
2022-09-25T07:51:41.912Z,13.84
2022-09-25T07:54:10.435Z,13.93
2022-09-25T07:56:40.729Z,13.95
2022-09-25T07:59:08.976Z,13.96
2022-09-25T08:01:43.278Z,13.96
2022-09-25T08:04:12.681Z,13.99
2022-09-25T08:06:42.575Z,13.91
2022-09-25T08:09:12.031Z,13.90
2022-09-25T08:11:40.859Z,14.11
2022-09-25T08:14:09.650Z,14.12
2022-09-25T08:16:39.049Z,14.08
2022-09-25T08:19:07.212Z,14.20
2022-09-25T08:21:36.185Z,14.24
2022-09-25T08:24:05.986Z,14.26
2022-09-25T08:26:34.397Z,14.31
2022-09-25T08:29:02.893Z,14.34
2022-09-25T08:31:31.256Z,14.38
2022-09-25T08:34:09.934Z,14.38
2022-09-25T08:36:50.504Z,14.45
2022-09-25T08:39:20.161Z,14.43
2022-09-25T08:41:50.817Z,14.56
2022-09-25T08:44:26.221Z,14.62
2022-09-25T08:47:19.544Z,14.61
2022-09-25T08:49:57.345Z,14.62
2022-09-25T08:52:25.620Z,14.68
2022-09-25T08:54:55.893Z,14.67
2022-09-25T08:57:31.069Z,14.62
2022-09-25T09:00:03.398Z,14.62
2022-09-25T09:02:40.177Z,14.63
2022-09-25T09:05:18.526Z,14.53
2022-09-25T09:07:51.214Z,14.64
2022-09-25T09:10:29.984Z,14.61
2022-09-25T09:13:02.533Z,14.62
2022-09-25T09:15:37.913Z,14.76
2022-09-25T09:18:18.543Z,14.81
2022-09-25T09:20:52.805Z,14.82
2022-09-25T09:23:22.603Z,14.79
2022-09-25T09:26:01.226Z,14.82
2022-09-25T09:29:02.217Z,14.79
2022-09-25T09:31:38.851Z,14.84
2022-09-25T09:34:53.529Z,14.77
2022-09-25T09:37:31.826Z,14.88
2022-09-25T09:40:13.775Z,14.91
2022-09-25T09:42:51.570Z,14.94
2022-09-25T09:45:28.619Z,15.01
2022-09-25T09:48:02.954Z,15.04
2022-09-25T09:50:47.207Z,15.10
2022-09-25T09:53:29.275Z,15.16
2022-09-25T09:56:02.230Z,15.24
2022-09-25T09:58:49.041Z,15.27
2022-09-25T10:04:13.656Z,15.28
2022-09-25T10:06:48.182Z,15.31
2022-09-25T10:09:18.190Z,15.30
2022-09-25T10:11:48.669Z,15.28
2022-09-25T10:14:22.056Z,15.30
2022-09-25T10:16:51.834Z,15.32
2022-09-25T10:19:22.919Z,15.42
2022-09-25T10:21:56.251Z,15.54
2022-09-25T10:24:55.245Z,15.62
2022-09-25T10:27:36.010Z,15.60
2022-09-25T10:30:18.904Z,15.61
2022-09-25T10:32:57.828Z,15.64
2022-09-25T10:35:29.745Z,15.68
2022-09-25T10:38:02.466Z,15.64
2022-09-25T10:40:34.285Z,15.77
2022-09-25T10:43:15.799Z,15.86
2022-09-25T10:45:46.315Z,15.83
2022-09-25T10:48:46.584Z,15.80
2022-09-25T10:51:17.506Z,15.84
2022-09-25T10:53:46.982Z,15.83
2022-09-25T10:56:20.714Z,15.90
2022-09-25T10:58:55.185Z,15.92
2022-09-25T11:01:35.567Z,15.97
2022-09-25T11:04:09.608Z,16.11
2022-09-25T11:06:44.204Z,16.10
2022-09-25T11:09:15.849Z,16.20
2022-09-25T11:11:49.601Z,16.34
2022-09-25T11:14:23.173Z,16.45
2022-09-25T11:16:56.219Z,16.61
2022-09-25T11:19:29.195Z,16.66
2022-09-25T11:22:12.741Z,16.62
2022-09-25T11:25:00.230Z,16.52
2022-09-25T11:27:36.188Z,16.60
2022-09-25T11:30:08.038Z,16.64
2022-09-25T11:32:51.678Z,16.71
2022-09-25T11:35:34.909Z,16.74
2022-09-25T11:38:12.564Z,16.76
2022-09-25T11:41:07.423Z,16.80
2022-09-25T11:43:47.560Z,16.81
2022-09-25T11:46:24.401Z,16.99
2022-09-25T11:49:08.535Z,17.12
2022-09-25T11:52:16.604Z,17.07
2022-09-25T11:54:59.099Z,17.20
2022-09-25T11:57:35.464Z,17.14
2022-09-25T12:00:13.189Z,17.16
2022-09-25T12:03:03.972Z,17.21
2022-09-25T12:05:55.732Z,17.34
2022-09-25T12:08:40.553Z,17.41
2022-09-25T12:11:20.681Z,17.44
2022-09-25T12:13:55.942Z,17.51
2022-09-25T12:16:29.218Z,17.58
2022-09-25T12:19:09.617Z,17.67
2022-09-25T12:21:48.563Z,17.59
2022-09-25T12:24:32.028Z,17.53
2022-09-25T12:27:07.547Z,17.67
2022-09-25T12:29:48.111Z,17.53
2022-09-25T12:32:37.071Z,17.54
2022-09-25T12:35:26.964Z,17.62
2022-09-25T12:38:03.029Z,17.65
2022-09-25T12:40:37.714Z,17.54
2022-09-25T12:43:11.560Z,17.43
2022-09-25T12:45:45.302Z,17.33
2022-09-25T12:48:18.822Z,17.37
2022-09-25T12:50:55.625Z,17.36
2022-09-25T12:53:30.085Z,17.39
2022-09-25T12:56:05.225Z,17.41
2022-09-25T12:58:49.340Z,17.20
2022-09-25T13:01:23.824Z,17.15
2022-09-25T13:04:03.297Z,17.02
2022-09-25T13:06:41.978Z,17.09
2022-09-25T13:09:20.545Z,17.08
2022-09-25T13:11:53.394Z,17.13
2022-09-25T13:14:32.243Z,17.08
2022-09-25T13:17:01.318Z,17.16
2022-09-25T13:19:33.416Z,17.26
2022-09-25T13:22:05.119Z,17.14
2022-09-25T13:24:40.773Z,17.00
2022-09-25T13:27:16.963Z,16.81
2022-09-25T13:29:45.897Z,16.88
2022-09-25T13:32:19.202Z,16.89
2022-09-25T13:34:48.184Z,16.66
2022-09-25T13:37:17.666Z,16.57
2022-09-25T13:40:10.140Z,16.54
2022-09-25T13:42:40.442Z,16.55
2022-09-25T13:45:33.842Z,16.51
2022-09-25T13:48:12.320Z,16.54
2022-09-25T13:50:43.245Z,16.76
2022-09-25T13:53:28.592Z,16.72
2022-09-25T13:56:30.482Z,16.59
2022-09-25T13:59:26.576Z,16.64
2022-09-25T14:01:57.929Z,16.69
2022-09-25T14:04:33.584Z,16.71
2022-09-25T14:07:29.908Z,16.72
2022-09-25T14:10:00.339Z,16.68
2022-09-25T14:12:42.615Z,16.72
2022-09-25T14:15:21.489Z,16.82
2022-09-25T14:17:53.306Z,16.79
2022-09-25T14:20:37.476Z,16.76
2022-09-25T14:23:13.080Z,16.76
2022-09-25T14:25:47.117Z,16.81
2022-09-25T14:28:25.647Z,16.78
2022-09-25T14:31:14.414Z,16.69
2022-09-25T14:34:02.978Z,16.64
2022-09-25T14:36:39.698Z,16.55
2022-09-25T14:39:38.822Z,16.54
2022-09-25T14:42:30.680Z,16.53
2022-09-25T14:45:18.973Z,16.58
2022-09-25T14:47:50.630Z,16.50
2022-09-25T14:50:23.667Z,16.50
2022-09-25T14:52:56.862Z,16.51
2022-09-25T14:55:27.985Z,16.54
2022-09-25T14:57:58.830Z,16.48
2022-09-25T15:00:30.185Z,16.42
2022-09-25T15:02:59.880Z,16.38
2022-09-25T15:05:33.070Z,16.39
2022-09-25T15:08:03.390Z,16.29
2022-09-25T15:10:34.700Z,16.30
2022-09-25T15:13:15.992Z,16.14
2022-09-25T15:16:01.728Z,16.11
2022-09-25T15:18:30.891Z,16.13
2022-09-25T15:20:59.953Z,16.16
2022-09-25T15:23:34.256Z,16.06
2022-09-25T15:26:03.360Z,16.07
2022-09-25T15:28:41.339Z,16.05
2022-09-25T15:31:11.894Z,16.12
2022-09-25T15:33:41.580Z,16.20
2022-09-25T15:36:20.403Z,16.19
2022-09-25T15:38:54.569Z,16.06
2022-09-25T15:41:24.839Z,16.06
2022-09-25T15:43:53.649Z,16.14
2022-09-25T15:48:33.226Z,15.96
2022-09-25T15:51:07.199Z,15.94
2022-09-25T15:53:44.431Z,15.90
2022-09-25T15:56:19.856Z,15.91
2022-09-25T15:58:51.686Z,15.89
2022-09-25T16:01:40.780Z,15.89
2022-09-25T16:04:38.500Z,15.84
2022-09-25T16:07:24.283Z,15.77
2022-09-25T16:09:54.734Z,15.84
2022-09-25T16:12:29.073Z,15.87
2022-09-25T16:14:59.931Z,15.86
2022-09-25T16:17:34.147Z,15.63
2022-09-25T16:20:07.763Z,15.60
2022-09-25T16:22:42.105Z,15.62
2022-09-25T16:25:22.308Z,15.61
2022-09-25T16:27:50.778Z,15.66
2022-09-25T16:30:22.392Z,15.67
2022-09-25T16:32:52.688Z,15.63
2022-09-25T16:35:57.557Z,15.60
2022-09-25T16:38:32.167Z,15.59
2022-09-25T16:41:05.705Z,15.58
2022-09-25T16:43:36.583Z,15.53
2022-09-25T16:46:15.212Z,15.49
2022-09-25T16:48:43.998Z,15.45
2022-09-25T16:51:21.924Z,15.38
2022-09-25T16:53:50.547Z,15.41
2022-09-25T16:56:22.232Z,15.29
2022-09-25T16:58:51.033Z,15.32
2022-09-25T17:01:19.885Z,15.29
2022-09-25T17:03:52.606Z,15.36
2022-09-25T17:06:23.864Z,15.39
2022-09-25T17:08:52.310Z,15.36
2022-09-25T17:11:22.615Z,15.24
2022-09-25T17:13:52.692Z,15.10
2022-09-25T17:16:21.116Z,15.07
2022-09-25T17:18:49.535Z,14.99
2022-09-25T17:21:20.245Z,14.94
2022-09-25T17:23:50.080Z,14.95
2022-09-25T17:26:21.549Z,14.96
2022-09-25T17:28:50.860Z,14.91
2022-09-25T17:31:21.328Z,14.95
2022-09-25T17:33:51.193Z,14.93
2022-09-25T17:36:19.779Z,14.90
2022-09-25T17:38:49.435Z,14.83
2022-09-25T17:41:21.877Z,14.84
2022-09-25T17:43:50.448Z,14.79
2022-09-25T17:46:19.230Z,14.75
2022-09-25T17:48:53.109Z,14.71
2022-09-25T17:51:24.659Z,14.56
2022-09-25T17:53:56.112Z,14.54
2022-09-25T17:56:24.699Z,14.48
2022-09-25T17:58:55.100Z,14.61
2022-09-25T18:01:25.104Z,14.54
2022-09-25T18:03:55.027Z,14.50
2022-09-25T18:06:23.338Z,14.50
2022-09-25T18:08:54.826Z,14.53
2022-09-25T18:11:24.469Z,14.46
2022-09-25T18:13:54.418Z,14.37
2022-09-25T18:16:27.191Z,14.37
2022-09-25T18:19:13.475Z,14.34
2022-09-25T18:21:59.632Z,14.37
2022-09-25T18:24:29.693Z,14.27
2022-09-25T18:26:58.633Z,14.16
2022-09-25T18:29:27.522Z,14.20
2022-09-25T18:31:56.013Z,14.28
2022-09-25T18:34:26.270Z,14.29
2022-09-25T18:36:55.534Z,14.27
2022-09-25T18:39:24.327Z,14.25
2022-09-25T18:41:54.220Z,14.20
2022-09-25T18:44:23.890Z,14.19
2022-09-25T18:46:53.233Z,14.21
2022-09-25T18:49:22.702Z,14.20
2022-09-25T18:51:53.436Z,14.25
2022-09-25T18:54:22.119Z,14.29
2022-09-25T18:56:50.406Z,14.34
2022-09-25T18:59:20.376Z,14.27
2022-09-25T19:01:49.037Z,14.20
2022-09-25T19:04:17.845Z,14.19
2022-09-25T19:06:46.320Z,14.22
2022-09-25T19:09:16.902Z,14.23
2022-09-25T19:11:46.135Z,14.20
2022-09-25T19:14:16.830Z,14.13
2022-09-25T19:16:47.699Z,14.15
2022-09-25T19:19:15.991Z,14.08
2022-09-25T19:21:45.159Z,14.13
2022-09-25T19:24:14.641Z,14.14
2022-09-25T19:26:44.370Z,14.17
2022-09-25T19:29:14.474Z,13.86
2022-09-25T19:31:43.208Z,14.17
2022-09-25T19:34:13.450Z,14.08
2022-09-25T19:36:42.080Z,14.07
2022-09-25T19:39:11.287Z,14.05
2022-09-25T19:41:41.186Z,14.04
2022-09-25T19:44:14.328Z,14.02
2022-09-25T19:46:43.735Z,13.88
2022-09-25T19:49:14.752Z,13.94
2022-09-25T19:51:44.412Z,13.96
2022-09-25T19:54:15.808Z,13.85
2022-09-25T19:56:46.661Z,13.73
2022-09-25T19:59:17.411Z,13.72
2022-09-25T20:01:46.574Z,13.75
2022-09-25T20:04:18.943Z,13.68
2022-09-25T20:06:48.882Z,13.70
2022-09-25T20:09:17.282Z,13.71
2022-09-25T20:11:46.143Z,13.70
2022-09-25T20:14:14.766Z,13.62
2022-09-25T20:16:42.964Z,13.63
2022-09-25T20:19:13.855Z,13.66
2022-09-25T20:21:43.524Z,13.70
2022-09-25T20:24:11.732Z,13.83
2022-09-25T20:26:40.789Z,13.84
2022-09-25T20:29:12.448Z,13.83
2022-09-25T20:31:42.600Z,13.81
2022-09-25T20:34:14.045Z,13.72
2022-09-25T20:36:44.141Z,13.72
2022-09-25T20:39:16.868Z,13.66
2022-09-25T20:41:48.291Z,13.63
2022-09-25T20:44:16.634Z,13.73
2022-09-25T20:46:44.815Z,13.76
2022-09-25T20:49:13.447Z,13.74
2022-09-25T20:51:42.284Z,13.74
2022-09-25T20:54:12.067Z,13.75
2022-09-25T20:56:43.992Z,13.77
2022-09-25T20:59:16.228Z,13.77
2022-09-25T21:01:44.968Z,13.77
2022-09-25T21:04:13.370Z,13.71
2022-09-25T21:06:42.952Z,13.65
2022-09-25T21:09:19.645Z,13.57
2022-09-25T21:11:48.412Z,13.56
2022-09-25T21:14:23.983Z,13.56
2022-09-25T21:16:52.963Z,13.64
2022-09-25T21:19:23.381Z,13.59
2022-09-25T21:21:51.787Z,13.54
2022-09-25T21:24:22.950Z,13.58
2022-09-25T21:26:52.005Z,13.65
2022-09-25T21:29:21.527Z,13.59
2022-09-25T21:31:50.853Z,13.63
2022-09-25T21:34:19.883Z,13.71
2022-09-25T21:36:49.170Z,13.77
2022-09-25T21:39:17.771Z,13.78
2022-09-25T21:41:49.145Z,13.75
2022-09-25T21:44:20.374Z,13.77
2022-09-25T21:46:48.647Z,13.72
2022-09-25T21:49:18.646Z,13.75
2022-09-25T21:51:47.610Z,13.77
2022-09-25T21:54:17.784Z,13.83
2022-09-25T21:56:46.251Z,13.79
2022-09-25T21:59:16.617Z,13.80
2022-09-25T22:01:45.031Z,13.82
2022-09-25T22:04:14.883Z,13.81
2022-09-25T22:06:44.607Z,13.76
2022-09-25T22:09:14.597Z,13.78
2022-09-25T22:11:43.679Z,13.75
2022-09-25T22:14:16.096Z,13.76
2022-09-25T22:16:48.137Z,13.73
2022-09-25T22:19:19.348Z,13.75
2022-09-25T22:21:49.186Z,13.75
2022-09-25T22:24:17.872Z,13.75
2022-09-25T22:26:48.060Z,13.74
2022-09-25T22:29:17.413Z,13.74
2022-09-25T22:31:47.416Z,13.73
2022-09-25T22:34:19.806Z,13.71
2022-09-25T22:36:48.334Z,13.70
2022-09-25T22:39:18.556Z,13.66
2022-09-25T22:41:50.964Z,13.65
2022-09-25T22:44:20.117Z,13.64
2022-09-25T22:46:49.951Z,13.62
2022-09-25T22:49:18.991Z,13.61
2022-09-25T22:51:47.293Z,13.61
2022-09-25T22:54:15.996Z,13.62
2022-09-25T22:56:45.112Z,13.60
2022-09-25T22:59:16.304Z,13.55
2022-09-25T23:01:47.565Z,13.50
2022-09-25T23:04:19.644Z,13.48
2022-09-25T23:06:48.406Z,13.54
2022-09-25T23:09:18.887Z,13.50
2022-09-25T23:11:47.376Z,13.47
2022-09-25T23:14:17.712Z,13.43
2022-09-25T23:16:47.096Z,13.49
2022-09-25T23:19:17.435Z,13.42
2022-09-25T23:21:46.084Z,13.46
2022-09-25T23:24:17.755Z,13.41
2022-09-25T23:26:46.934Z,13.33
2022-09-25T23:29:16.683Z,13.34
2022-09-25T23:31:45.671Z,13.36
2022-09-25T23:34:14.049Z,13.32
2022-09-25T23:36:43.691Z,13.29
2022-09-25T23:39:16.983Z,13.25
2022-09-25T23:41:45.512Z,13.25
2022-09-25T23:44:13.682Z,13.24
2022-09-25T23:46:43.408Z,13.23
2022-09-25T23:49:14.929Z,13.18
2022-09-25T23:51:46.610Z,13.22
2022-09-25T23:54:15.094Z,13.13
2022-09-25T23:56:43.762Z,13.09
2022-09-25T23:59:13.854Z,13.10
